Time;durP1;ratioP1;P1;durP2;ratioP2;P2;SDS_P1;SDS_P2;PMS_P1;PMS_P2;Temp;Humidity;BMP_temperature;BMP_pressure;BME280_temperature;BME280_humidity;BME280_pressure;Samples;Min_cycle;Max_cycle;Signal;HPM_P1;HPM_P2
2022/09/03 00:02:37;;;;;;;6.82;1.20;;;14.20;99.90;;;;;;5063343;28;20210;-87
2022/09/03 00:05:17;;;;;;;6.70;1.45;;;14.30;99.90;;;;;;5056723;28;20231;-86
2022/09/03 00:07:54;;;;;;;6.95;1.35;;;14.40;99.90;;;;;;5074328;28;20678;-88
2022/09/03 00:10:31;;;;;;;7.05;1.50;;;14.40;99.90;;;;;;5074874;28;20199;-87
2022/09/03 00:13:06;;;;;;;8.63;1.50;;;14.40;99.90;;;;;;5073672;28;20203;-88
2022/09/03 00:15:41;;;;;;;8.38;1.63;;;14.40;99.90;;;;;;5042682;28;20210;-89
2022/09/03 00:18:19;;;;;;;12.35;1.88;;;14.40;99.90;;;;;;5058709;28;20200;-87
2022/09/03 00:20:53;;;;;;;10.63;1.73;;;14.50;99.90;;;;;;5075309;28;20210;-88
2022/09/03 00:23:29;;;;;;;6.28;1.35;;;14.40;99.90;;;;;;5074948;28;20198;-88
2022/09/03 00:26:06;;;;;;;8.98;2.03;;;14.50;99.90;;;;;;5069527;28;20224;-89
2022/09/03 00:28:44;;;;;;;9.02;1.65;;;14.50;99.90;;;;;;5070531;28;20227;-89
2022/09/03 00:31:21;;;;;;;12.93;1.92;;;14.60;99.90;;;;;;5053831;28;21229;-87
2022/09/03 00:33:58;;;;;;;10.68;1.60;;;14.60;99.90;;;;;;5065138;28;20662;-85
2022/09/03 00:36:35;;;;;;;10.90;2.10;;;14.80;99.90;;;;;;5070152;28;20238;-86
2022/09/03 00:39:06;;;;;;;13.98;1.70;;;14.80;99.90;;;;;;5065979;28;20655;-85
2022/09/03 00:41:40;;;;;;;9.85;1.50;;;14.80;99.90;;;;;;5057354;28;20476;-85
2022/09/03 00:44:47;;;;;;;11.02;1.90;;;14.90;99.90;;;;;;5063263;28;20307;-86
2022/09/03 00:47:26;;;;;;;8.10;1.67;;;15.00;99.90;;;;;;5054233;28;20646;-87
2022/09/03 00:50:11;;;;;;;7.93;1.75;;;15.00;99.90;;;;;;5070243;28;20206;-89
2022/09/03 00:52:52;;;;;;;9.63;1.95;;;15.20;99.90;;;;;;5061365;28;20686;-87
2022/09/03 00:55:33;;;;;;;7.68;1.90;;;15.20;99.90;;;;;;5051793;28;20657;-86
2022/09/03 00:58:26;;;;;;;7.43;1.60;;;15.30;99.90;;;;;;5052241;28;20208;-86
2022/09/03 01:00:58;;;;;;;11.30;1.75;;;15.40;99.90;;;;;;5055595;28;20204;-88
2022/09/03 01:03:56;;;;;;;9.13;1.40;;;15.40;99.90;;;;;;5057935;28;20196;-87
2022/09/03 01:06:40;;;;;;;5.60;1.50;;;15.20;99.90;;;;;;5073048;28;20247;-88
2022/09/03 01:09:27;;;;;;;10.85;2.33;;;15.30;99.90;;;;;;5080816;28;20242;-85
2022/09/03 01:12:12;;;;;;;11.20;1.52;;;15.30;99.90;;;;;;5070861;28;20257;-85
2022/09/03 01:15:00;;;;;;;7.85;1.73;;;15.40;99.90;;;;;;5069158;28;20265;-86
2022/09/03 01:17:48;;;;;;;7.47;1.67;;;15.40;99.90;;;;;;5070369;28;20208;-87
2022/09/03 01:20:31;;;;;;;10.68;1.83;;;15.50;99.90;;;;;;5068228;28;20594;-87
2022/09/03 01:23:46;;;;;;;8.65;1.65;;;15.60;99.90;;;;;;5051806;28;20204;-86
2022/09/03 01:26:30;;;;;;;10.63;1.80;;;15.70;99.90;;;;;;5051436;28;20224;-84
2022/09/03 01:29:12;;;;;;;7.65;1.40;;;15.80;99.90;;;;;;5065949;28;20198;-86
2022/09/03 01:31:52;;;;;;;5.70;1.45;;;15.70;99.90;;;;;;5080635;28;20195;-87
2022/09/03 01:34:43;;;;;;;7.00;1.50;;;15.80;99.90;;;;;;5054256;28;20192;-87
2022/09/03 01:37:23;;;;;;;9.55;1.67;;;15.80;99.90;;;;;;5060943;28;20234;-87
2022/09/03 01:40:03;;;;;;;6.97;1.70;;;16.00;99.90;;;;;;5054457;28;20207;-86
2022/09/03 01:42:45;;;;;;;12.00;1.55;;;16.00;99.90;;;;;;5055381;28;20196;-86
2022/09/03 01:45:33;;;;;;;10.55;1.98;;;16.00;99.90;;;;;;5051527;28;20297;-85
2022/09/03 01:48:15;;;;;;;11.77;2.70;;;16.00;99.90;;;;;;5064215;28;20347;-83
2022/09/03 01:50:51;;;;;;;13.63;2.85;;;15.90;99.90;;;;;;5058696;28;20277;-84
2022/09/03 01:53:42;;;;;;;11.07;2.35;;;15.90;99.90;;;;;;5069497;28;20194;-85
2022/09/03 01:56:32;;;;;;;11.98;2.70;;;15.80;99.90;;;;;;5064490;28;20230;-85
2022/09/03 01:59:09;;;;;;;8.35;1.58;;;15.80;99.90;;;;;;5073120;28;20192;-85
2022/09/03 02:01:53;;;;;;;8.98;1.70;;;15.70;99.90;;;;;;5056338;28;20195;-85
2022/09/03 02:04:26;;;;;;;7.70;1.60;;;15.60;99.90;;;;;;5057704;28;20200;-86
2022/09/03 02:06:59;;;;;;;10.27;1.38;;;15.60;99.90;;;;;;5060509;28;20203;-85
2022/09/03 02:09:30;;;;;;;11.32;2.20;;;15.50;99.90;;;;;;5064282;28;20253;-85
2022/09/03 02:12:09;;;;;;;8.00;1.52;;;15.50;99.90;;;;;;5070121;28;20192;-85
2022/09/03 02:14:40;;;;;;;8.25;1.83;;;15.60;99.90;;;;;;5080237;28;20682;-84
2022/09/03 02:17:14;;;;;;;4.57;1.20;;;15.70;99.90;;;;;;5074068;28;20291;-85
2022/09/03 02:19:44;;;;;;;9.77;1.48;;;15.80;99.90;;;;;;5068109;28;20226;-85
2022/09/03 02:22:16;;;;;;;8.25;1.65;;;15.90;99.90;;;;;;5070193;28;20681;-85
2022/09/03 02:24:47;;;;;;;9.00;1.70;;;16.10;99.90;;;;;;5063805;28;20212;-85
2022/09/03 02:27:18;;;;;;;6.18;1.58;;;16.40;99.90;;;;;;5069271;28;20248;-85
2022/09/03 02:29:49;;;;;;;9.25;1.73;;;16.40;99.90;;;;;;5070017;28;20210;-86
2022/09/03 02:32:21;;;;;;;8.88;1.50;;;16.50;99.90;;;;;;5068613;28;20195;-86
2022/09/03 02:34:52;;;;;;;3.70;1.40;;;16.60;99.90;;;;;;5057214;28;20203;-86
2022/09/03 02:37:24;;;;;;;6.65;1.48;;;16.60;99.90;;;;;;5050552;28;20235;-87
2022/09/03 02:39:54;;;;;;;8.30;1.48;;;16.60;99.90;;;;;;5057865;28;20199;-87
2022/09/03 02:42:26;;;;;;;7.07;1.48;;;16.50;99.90;;;;;;5066663;28;20662;-87
2022/09/03 02:45:02;;;;;;;9.02;1.80;;;16.40;99.90;;;;;;5071088;28;20713;-87
2022/09/03 02:47:38;;;;;;;7.43;1.02;;;16.50;99.90;;;;;;5067273;28;20222;-86
2022/09/03 02:50:10;;;;;;;3.45;1.20;;;16.40;99.90;;;;;;5074028;28;20658;-87
2022/09/03 02:52:41;;;;;;;4.50;0.95;;;16.30;99.90;;;;;;5062238;28;20192;-87
2022/09/03 02:55:12;;;;;;;4.75;1.20;;;16.40;99.90;;;;;;5050677;28;20212;-86
2022/09/03 02:57:45;;;;;;;5.82;1.33;;;16.50;99.90;;;;;;5054166;28;20196;-86
2022/09/03 03:00:16;;;;;;;5.00;1.33;;;16.70;99.90;;;;;;5070835;28;20565;-87
2022/09/03 03:02:51;;;;;;;5.00;1.30;;;16.70;99.90;;;;;;5070131;28;20223;-86
2022/09/03 03:05:27;;;;;;;4.57;1.17;;;16.60;99.90;;;;;;5070439;28;20697;-86
2022/09/03 03:08:00;;;;;;;4.68;1.27;;;16.50;99.90;;;;;;5070989;28;20186;-87
2022/09/03 03:10:31;;;;;;;4.88;1.00;;;16.50;99.90;;;;;;5070862;28;20565;-86
2022/09/03 03:13:01;;;;;;;5.07;1.08;;;16.40;99.90;;;;;;5073121;28;20202;-85
2022/09/03 03:15:32;;;;;;;5.55;1.40;;;16.50;99.90;;;;;;5065102;28;20200;-86
2022/09/03 03:18:06;;;;;;;4.55;1.08;;;16.60;99.90;;;;;;5054892;28;20665;-87
2022/09/03 03:20:37;;;;;;;6.18;1.20;;;16.70;99.90;;;;;;5054390;28;20200;-86
2022/09/03 03:23:08;;;;;;;8.85;1.15;;;16.70;99.90;;;;;;5075637;28;20214;-86
2022/09/03 03:25:42;;;;;;;3.83;1.13;;;16.70;99.90;;;;;;5084817;28;20274;-86
2022/09/03 03:28:14;;;;;;;6.47;1.25;;;16.80;99.90;;;;;;5075238;28;20200;-86
2022/09/03 03:30:47;;;;;;;7.25;1.63;;;16.80;99.90;;;;;;5074069;28;20253;-86
2022/09/03 03:33:21;;;;;;;7.43;1.38;;;16.80;99.90;;;;;;5071542;28;20213;-86
2022/09/03 03:35:53;;;;;;;7.05;1.50;;;16.80;99.90;;;;;;5073676;28;20226;-86
2022/09/03 03:38:24;;;;;;;4.68;1.17;;;16.80;99.90;;;;;;5073350;28;20238;-86
2022/09/03 03:40:55;;;;;;;5.60;1.25;;;16.90;99.90;;;;;;5057697;28;20185;-86
2022/09/03 03:43:26;;;;;;;7.32;1.50;;;17.00;99.90;;;;;;5073611;28;20196;-86
2022/09/03 03:46:00;;;;;;;5.65;1.40;;;17.10;99.90;;;;;;5073728;28;20224;-86
2022/09/03 03:48:33;;;;;;;5.47;1.42;;;17.20;99.90;;;;;;5071206;28;20207;-86
2022/09/03 03:51:05;;;;;;;7.43;1.27;;;17.30;99.90;;;;;;5073627;28;20184;-85
2022/09/03 03:53:38;;;;;;;5.85;1.80;;;17.30;99.90;;;;;;5094060;28;20282;-85
2022/09/03 03:56:10;;;;;;;7.65;2.03;;;17.40;99.90;;;;;;5088977;28;20308;-85
2022/09/03 03:58:42;;;;;;;8.98;1.58;;;17.20;99.90;;;;;;5073635;28;20565;-84
2022/09/03 04:01:15;;;;;;;6.55;1.27;;;17.10;99.90;;;;;;5073359;28;20257;-86
2022/09/03 04:03:49;;;;;;;5.97;1.10;;;17.00;99.90;;;;;;5070421;28;20198;-86
2022/09/03 04:06:22;;;;;;;7.55;1.42;;;16.80;99.90;;;;;;5073074;28;20270;-86
2022/09/03 04:08:53;;;;;;;6.97;1.60;;;16.50;99.90;;;;;;5073203;28;20218;-86
2022/09/03 04:11:24;;;;;;;8.07;1.55;;;16.30;99.90;;;;;;5069696;28;20241;-85
2022/09/03 04:13:55;;;;;;;6.45;1.40;;;16.00;99.90;;;;;;5073242;28;20214;-86
2022/09/03 04:16:28;;;;;;;6.05;1.60;;;15.90;99.90;;;;;;5073536;28;20230;-87
2022/09/03 04:19:00;;;;;;;7.30;1.30;;;15.80;99.90;;;;;;5071573;28;20579;-88
2022/09/03 04:21:32;;;;;;;6.32;1.52;;;15.70;99.90;;;;;;5073658;28;20196;-87
2022/09/03 04:24:06;;;;;;;9.57;1.60;;;15.50;99.90;;;;;;5073012;28;20194;-87
2022/09/03 04:26:37;;;;;;;4.00;1.33;;;15.50;99.90;;;;;;5073143;28;20234;-87
2022/09/03 04:29:11;;;;;;;7.85;1.20;;;15.50;99.90;;;;;;5072672;28;20196;-87
2022/09/03 04:32:51;;;;;;;7.03;1.42;;;15.40;99.90;;;;;;5074169;28;20282;-87
2022/09/03 04:34:38;;;;;;;9.45;1.50;;;15.30;99.90;;;;;;5070787;28;20231;-87
2022/09/03 04:37:10;;;;;;;5.07;1.30;;;15.20;99.90;;;;;;5073158;28;20634;-88
2022/09/03 04:39:42;;;;;;;6.70;1.60;;;15.20;99.90;;;;;;5072895;28;20184;-88
2022/09/03 04:42:13;;;;;;;5.75;1.60;;;15.20;99.90;;;;;;5073646;28;20276;-88
2022/09/03 04:44:44;;;;;;;7.75;1.70;;;15.30;99.90;;;;;;5073108;28;20666;-88
2022/09/03 04:47:15;;;;;;;6.72;1.48;;;15.30;99.90;;;;;;5074117;28;20223;-89
2022/09/03 04:49:50;;;;;;;8.73;1.40;;;15.30;99.90;;;;;;5074718;28;20196;-89
2022/09/03 04:52:20;;;;;;;11.63;1.90;;;15.40;99.90;;;;;;5078179;28;20221;-87
2022/09/03 04:54:52;;;;;;;10.02;2.03;;;15.40;99.90;;;;;;5076106;28;20184;-88
2022/09/03 04:57:24;;;;;;;10.57;1.85;;;15.50;99.90;;;;;;5064862;28;20200;-88
2022/09/03 04:59:55;;;;;;;9.63;1.55;;;15.60;99.90;;;;;;5053782;28;20274;-88
2022/09/03 05:02:26;;;;;;;6.50;1.80;;;15.60;99.90;;;;;;5053469;28;20193;-88
2022/09/03 05:05:01;;;;;;;5.45;1.58;;;15.50;99.90;;;;;;5063462;28;20207;-88
2022/09/03 05:07:37;;;;;;;9.00;1.65;;;15.60;99.90;;;;;;5073078;28;20223;-89
2022/09/03 05:10:14;;;;;;;9.40;1.98;;;15.60;99.90;;;;;;5072773;28;20201;-88
2022/09/03 05:12:47;;;;;;;10.23;1.70;;;15.50;99.90;;;;;;5073250;28;20235;-88
2022/09/03 05:15:19;;;;;;;7.45;1.40;;;15.50;99.90;;;;;;5056868;28;20624;-88
2022/09/03 05:17:51;;;;;;;7.07;1.25;;;15.60;99.90;;;;;;5054397;28;20276;-85
2022/09/03 05:20:24;;;;;;;7.20;1.90;;;15.60;99.90;;;;;;5069631;28;20188;-86
2022/09/03 05:22:55;;;;;;;6.45;1.42;;;15.60;99.90;;;;;;5072057;28;20571;-85
2022/09/03 05:25:26;;;;;;;11.63;1.52;;;15.50;99.90;;;;;;5072126;28;20184;-85
2022/09/03 05:27:57;;;;;;;8.32;1.42;;;15.60;99.90;;;;;;5072788;28;20566;-85
2022/09/03 05:30:27;;;;;;;8.27;1.75;;;15.50;99.90;;;;;;5072165;28;20278;-85
2022/09/03 05:32:59;;;;;;;9.73;1.70;;;15.50;99.90;;;;;;5070146;28;20198;-86
2022/09/03 05:35:35;;;;;;;9.95;1.80;;;15.50;99.90;;;;;;5059083;28;20235;-86
2022/09/03 05:38:08;;;;;;;5.82;1.30;;;15.60;99.90;;;;;;5052211;28;20202;-86
2022/09/03 05:40:40;;;;;;;11.48;1.60;;;15.50;99.90;;;;;;5068555;28;20200;-86
2022/09/03 05:43:11;;;;;;;9.85;1.73;;;15.50;99.90;;;;;;5076768;28;20647;-86
2022/09/03 05:45:41;;;;;;;6.30;1.42;;;15.50;99.90;;;;;;5073164;28;20195;-85
2022/09/03 05:48:12;;;;;;;6.50;1.20;;;15.40;99.90;;;;;;5076332;28;20200;-85
2022/09/03 05:50:48;;;;;;;3.78;0.93;;;15.30;99.90;;;;;;5072905;28;20202;-88
2022/09/03 05:53:19;;;;;;;7.03;1.20;;;15.30;99.90;;;;;;5073835;28;20208;-88
2022/09/03 05:55:58;;;;;;;8.20;1.40;;;15.40;99.90;;;;;;5073117;28;20650;-88
2022/09/03 05:58:33;;;;;;;6.25;1.27;;;15.40;99.90;;;;;;5072753;28;20387;-87
2022/09/03 06:01:13;;;;;;;5.43;1.10;;;15.40;99.90;;;;;;5072666;28;20603;-87
2022/09/03 06:03:45;;;;;;;4.75;1.13;;;15.60;99.90;;;;;;5068309;28;20191;-86
2022/09/03 06:06:18;;;;;;;4.72;0.95;;;15.70;99.90;;;;;;5070344;28;20220;-86
2022/09/03 06:08:51;;;;;;;7.00;1.10;;;15.70;99.90;;;;;;5071939;28;20225;-85
2022/09/03 06:11:25;;;;;;;5.60;1.15;;;15.80;99.90;;;;;;5071279;28;20202;-86
2022/09/03 06:13:56;;;;;;;7.10;1.17;;;15.80;99.90;;;;;;5071257;28;20192;-85
2022/09/03 06:16:27;;;;;;;8.50;1.45;;;15.80;99.90;;;;;;5071475;28;20200;-86
2022/09/03 06:18:58;;;;;;;4.50;1.15;;;15.80;99.90;;;;;;5070361;28;20202;-85
2022/09/03 06:21:32;;;;;;;5.80;0.95;;;15.80;99.90;;;;;;5072066;28;20196;-87
2022/09/03 06:24:03;;;;;;;6.63;1.10;;;16.00;99.90;;;;;;5070970;28;20199;-84
2022/09/03 06:26:34;;;;;;;4.07;0.93;;;16.00;99.90;;;;;;5068959;28;20694;-85
2022/09/03 06:29:05;;;;;;;6.82;1.00;;;16.10;99.90;;;;;;5071115;28;20672;-85
2022/09/03 06:31:36;;;;;;;7.57;1.33;;;16.10;99.90;;;;;;5071280;28;20180;-87
2022/09/03 06:34:07;;;;;;;7.03;1.55;;;16.10;99.90;;;;;;5069467;28;20188;-86
2022/09/03 06:36:40;;;;;;;5.25;1.20;;;16.10;99.90;;;;;;5072179;28;20235;-89
2022/09/03 06:39:12;;;;;;;5.38;1.23;;;16.20;99.90;;;;;;5071708;28;20221;-88
2022/09/03 06:41:43;;;;;;;4.80;1.30;;;16.20;99.90;;;;;;5071909;28;20203;-88
2022/09/03 06:44:17;;;;;;;9.68;1.52;;;16.20;99.90;;;;;;5071585;28;20226;-89
2022/09/03 06:46:49;;;;;;;7.15;1.38;;;16.20;99.90;;;;;;5073031;28;20277;-85
2022/09/03 06:49:20;;;;;;;8.68;1.45;;;16.30;99.90;;;;;;5072945;28;20748;-85
2022/09/03 06:51:53;;;;;;;8.25;1.77;;;16.30;99.90;;;;;;5063166;28;20204;-85
2022/09/03 06:54:25;;;;;;;7.30;1.98;;;16.20;99.90;;;;;;5061710;28;20203;-87
2022/09/03 06:56:57;;;;;;;8.48;1.92;;;16.20;99.90;;;;;;5073873;28;20202;-86
2022/09/03 06:59:28;;;;;;;8.90;1.30;;;16.20;99.90;;;;;;5070270;28;20204;-86
2022/09/03 07:01:59;;;;;;;11.25;1.55;;;16.20;99.90;;;;;;5072287;28;20196;-86
2022/09/03 07:04:33;;;;;;;7.40;1.75;;;16.10;99.90;;;;;;5070806;28;20208;-86
2022/09/03 07:07:12;;;;;;;6.80;1.50;;;16.10;99.90;;;;;;5064545;28;20263;-85
2022/09/03 07:09:42;;;;;;;5.97;1.00;;;16.20;99.90;;;;;;5062033;28;20191;-85
2022/09/03 07:12:17;;;;;;;8.57;1.52;;;16.10;99.90;;;;;;5056334;28;20220;-86
2022/09/03 07:14:50;;;;;;;4.30;1.20;;;16.20;99.90;;;;;;5064504;28;20273;-87
2022/09/03 07:17:22;;;;;;;8.60;1.60;;;16.10;99.90;;;;;;5061198;28;20212;-87
2022/09/03 07:19:52;;;;;;;7.30;1.40;;;16.00;99.90;;;;;;5073814;28;20196;-86
2022/09/03 07:22:26;;;;;;;6.03;1.60;;;16.00;99.90;;;;;;5065319;28;20215;-85
2022/09/03 07:24:59;;;;;;;3.97;1.40;;;16.00;99.90;;;;;;5057124;28;20216;-87
2022/09/03 07:27:31;;;;;;;4.95;1.38;;;15.90;99.90;;;;;;5055817;28;20204;-85
2022/09/03 07:30:02;;;;;;;3.88;1.30;;;15.90;99.90;;;;;;5054929;28;20196;-86
2022/09/03 07:32:39;;;;;;;5.68;1.20;;;15.80;99.90;;;;;;5054044;28;20211;-86
2022/09/03 07:35:11;;;;;;;2.30;0.80;;;15.80;99.90;;;;;;5066064;28;20876;-86
2022/09/03 07:37:47;;;;;;;2.97;0.98;;;15.70;99.90;;;;;;5073759;28;20727;-86
2022/09/03 07:40:19;;;;;;;7.20;1.70;;;15.80;99.90;;;;;;5069848;28;20192;-86
2022/09/03 07:42:50;;;;;;;4.47;0.88;;;15.70;99.90;;;;;;5053312;28;20193;-86
2022/09/03 07:45:22;;;;;;;7.45;1.20;;;15.70;99.90;;;;;;5036305;28;20188;-86
2022/09/03 07:47:54;;;;;;;5.50;1.30;;;15.80;99.90;;;;;;5066382;28;20265;-85
2022/09/03 07:50:25;;;;;;;6.55;1.10;;;15.80;99.90;;;;;;5073906;28;20236;-85
2022/09/03 07:53:01;;;;;;;6.13;1.58;;;15.80;99.90;;;;;;5078667;28;20198;-87
2022/09/03 07:55:34;;;;;;;3.55;1.30;;;15.80;99.90;;;;;;5068041;28;20605;-86
2022/09/03 07:58:06;;;;;;;4.93;1.45;;;15.80;99.90;;;;;;5052546;28;20616;-87
2022/09/03 08:00:37;;;;;;;5.03;1.27;;;15.80;99.90;;;;;;5053209;28;20279;-87
2022/09/03 08:03:08;;;;;;;4.85;2.47;;;15.80;99.90;;;;;;5052980;28;20229;-86
2022/09/03 08:05:40;;;;;;;7.50;2.90;;;15.80;99.90;;;;;;5071190;28;20211;-86
2022/09/03 08:08:13;;;;;;;5.78;1.27;;;15.80;99.90;;;;;;5072932;28;20227;-86
2022/09/03 08:10:44;;;;;;;4.22;1.25;;;15.90;99.90;;;;;;5053668;28;20262;-86
2022/09/03 08:13:19;;;;;;;4.93;1.38;;;15.80;99.90;;;;;;5065459;28;20199;-86
2022/09/03 08:15:59;;;;;;;6.43;1.23;;;15.80;99.90;;;;;;5073559;28;20562;-87
2022/09/03 08:18:34;;;;;;;5.05;1.17;;;15.80;99.90;;;;;;5069216;28;20192;-87
2022/09/03 08:21:05;;;;;;;8.07;1.20;;;15.80;99.90;;;;;;5090174;28;20292;-86
2022/09/03 08:23:39;;;;;;;5.93;1.30;;;15.90;99.90;;;;;;5074564;28;20218;-86
2022/09/03 08:26:11;;;;;;;5.22;1.17;;;15.80;99.90;;;;;;5072759;28;20185;-86
2022/09/03 08:28:42;;;;;;;6.88;1.30;;;15.80;99.90;;;;;;5072063;28;20228;-87
2022/09/03 08:31:14;;;;;;;6.57;1.50;;;15.60;99.90;;;;;;5072779;28;20680;-86
2022/09/03 08:33:47;;;;;;;3.35;1.15;;;15.50;99.90;;;;;;5070446;28;20217;-86
2022/09/03 08:36:18;;;;;;;5.60;1.58;;;15.30;99.90;;;;;;5072676;28;20230;-87
2022/09/03 08:38:53;;;;;;;3.22;0.93;;;15.20;99.90;;;;;;5072764;28;20199;-86
2022/09/03 08:41:30;;;;;;;5.20;1.10;;;15.10;99.90;;;;;;5071858;28;20196;-86
2022/09/03 08:44:17;;;;;;;3.85;0.93;;;15.00;99.90;;;;;;5071744;28;20273;-87
2022/09/03 08:46:57;;;;;;;6.35;1.13;;;14.90;99.90;;;;;;5034458;28;20216;-87
2022/09/03 08:49:34;;;;;;;3.08;1.17;;;14.90;99.90;;;;;;5062524;28;20200;-87
2022/09/03 08:52:10;;;;;;;4.63;1.50;;;14.80;99.90;;;;;;5071603;28;20188;-86
2022/09/03 08:54:43;;;;;;;4.90;1.55;;;14.80;99.90;;;;;;5071949;28;20207;-86
2022/09/03 08:57:16;;;;;;;5.63;1.65;;;14.80;99.90;;;;;;5069636;28;20204;-84
2022/09/03 08:59:48;;;;;;;7.65;1.92;;;14.80;99.90;;;;;;5071474;28;20561;-85
2022/09/03 09:02:28;;;;;;;5.18;1.60;;;14.80;99.90;;;;;;5070305;28;20200;-86
2022/09/03 09:05:09;;;;;;;6.30;1.83;;;14.80;99.90;;;;;;5059535;28;20655;-87
2022/09/03 09:07:46;;;;;;;6.50;1.98;;;14.90;99.90;;;;;;5066251;28;20215;-85
2022/09/03 09:10:26;;;;;;;6.22;2.67;;;14.90;99.90;;;;;;5051708;28;20207;-85
2022/09/03 09:13:15;;;;;;;6.00;2.58;;;14.90;99.90;;;;;;5064580;28;20207;-85
2022/09/03 09:15:52;;;;;;;6.78;2.75;;;14.90;99.90;;;;;;5067668;28;20638;-87
2022/09/03 09:18:31;;;;;;;9.82;1.92;;;14.90;99.90;;;;;;5054033;28;20189;-87
2022/09/03 09:21:12;;;;;;;8.40;1.80;;;15.00;99.90;;;;;;5072076;28;20203;-87
2022/09/03 09:23:49;;;;;;;7.10;1.98;;;15.00;99.90;;;;;;5071768;28;20244;-87
2022/09/03 09:26:22;;;;;;;6.72;1.45;;;15.00;99.90;;;;;;5072299;28;20196;-87
2022/09/03 09:28:59;;;;;;;11.70;2.13;;;15.00;99.90;;;;;;5067368;28;20223;-88
2022/09/03 09:31:32;;;;;;;8.45;1.67;;;15.00;99.90;;;;;;5051982;28;20184;-86
2022/09/03 09:34:07;;;;;;;9.18;1.67;;;14.90;99.90;;;;;;5055863;28;20246;-87
2022/09/03 09:36:47;;;;;;;9.85;2.25;;;14.90;99.90;;;;;;5071098;28;20231;-86
2022/09/03 09:39:17;;;;;;;6.07;1.83;;;14.90;99.90;;;;;;5071169;28;20689;-86
2022/09/03 09:42:07;;;;;;;6.75;1.67;;;14.90;99.90;;;;;;5071946;28;20685;-88
2022/09/03 09:44:39;;;;;;;5.88;1.45;;;14.70;99.90;;;;;;5071207;28;20188;-87
2022/09/03 09:47:15;;;;;;;5.15;1.30;;;14.70;99.90;;;;;;5070802;28;20215;-87
2022/09/03 09:49:56;;;;;;;6.55;1.60;;;14.70;99.90;;;;;;5064679;28;20220;-88
2022/09/03 09:52:30;;;;;;;7.40;1.67;;;14.70;99.90;;;;;;5071349;28;20199;-87
2022/09/03 09:55:12;;;;;;;5.35;1.30;;;14.70;99.90;;;;;;5071052;28;20230;-87
2022/09/03 09:57:47;;;;;;;6.75;1.45;;;14.70;99.90;;;;;;5071105;28;20194;-85
2022/09/03 10:00:20;;;;;;;7.95;1.63;;;14.70;99.90;;;;;;5057044;28;20197;-85
2022/09/03 10:02:53;;;;;;;8.07;1.70;;;14.90;99.90;;;;;;5055373;28;20619;-86
2022/09/03 10:05:26;;;;;;;6.55;1.70;;;14.80;99.90;;;;;;5067287;28;20634;-86
2022/09/03 10:08:03;;;;;;;7.25;1.80;;;14.80;99.90;;;;;;5071135;28;20230;-87
2022/09/03 10:10:39;;;;;;;4.15;1.48;;;14.90;99.90;;;;;;5054251;28;20306;-87
2022/09/03 10:13:15;;;;;;;4.53;1.50;;;14.90;99.90;;;;;;5071094;28;20196;-87
2022/09/03 10:15:52;;;;;;;5.22;1.70;;;14.90;99.90;;;;;;5071379;28;20190;-87
2022/09/03 10:18:29;;;;;;;5.25;1.58;;;14.90;99.90;;;;;;5069485;28;20200;-87
2022/09/03 10:21:06;;;;;;;3.92;1.45;;;14.90;99.90;;;;;;5068716;28;20646;-87
2022/09/03 10:23:51;;;;;;;5.28;1.60;;;14.90;99.90;;;;;;5075076;28;20199;-88
2022/09/03 10:26:29;;;;;;;7.15;1.30;;;14.90;99.90;;;;;;5054556;28;20606;-87
2022/09/03 10:29:05;;;;;;;4.10;1.10;;;15.00;99.90;;;;;;5053262;28;20223;-86
2022/09/03 10:32:04;;;;;;;3.42;1.00;;;15.00;99.90;;;;;;5074384;28;20685;-86
2022/09/03 10:34:42;;;;;;;4.30;1.30;;;15.10;99.90;;;;;;5066459;28;20192;-87
2022/09/03 10:37:21;;;;;;;3.30;1.20;;;15.20;99.90;;;;;;5067003;28;20280;-86
2022/09/03 10:40:05;;;;;;;4.97;1.35;;;15.20;99.90;;;;;;5055420;28;20196;-85
2022/09/03 10:42:46;;;;;;;5.82;1.92;;;15.20;99.90;;;;;;5074948;28;20221;-89
2022/09/03 10:45:27;;;;;;;3.88;1.70;;;15.20;99.90;;;;;;5075749;28;20195;-89
2022/09/03 10:48:17;;;;;;;3.55;1.00;;;15.20;99.90;;;;;;5073674;28;20231;-90
2022/09/03 10:50:54;;;;;;;4.50;1.10;;;15.20;99.90;;;;;;5073339;28;20234;-90
2022/09/03 10:53:42;;;;;;;5.43;0.80;;;15.20;99.90;;;;;;5075145;28;20661;-88
2022/09/03 10:56:18;;;;;;;4.70;1.20;;;15.20;99.90;;;;;;5061843;28;20712;-88
2022/09/03 10:59:02;;;;;;;5.45;1.10;;;15.20;99.90;;;;;;5078402;28;20275;-91
2022/09/03 11:01:46;;;;;;;2.15;0.88;;;15.30;99.90;;;;;;5074506;28;20232;-91
2022/09/03 11:04:37;;;;;;;5.90;1.05;;;15.20;99.90;;;;;;5066300;28;20192;-92
2022/09/03 11:07:11;;;;;;;4.13;0.88;;;15.30;99.90;;;;;;5074425;28;20204;-92
2022/09/03 11:09:45;;;;;;;5.90;1.17;;;15.30;99.90;;;;;;5074673;28;20422;-91
2022/09/03 11:12:22;;;;;;;6.05;0.95;;;15.30;99.90;;;;;;5075245;28;20206;-91
2022/09/03 11:14:58;;;;;;;2.63;0.85;;;15.30;99.90;;;;;;5077193;28;20347;-90
2022/09/03 11:17:36;;;;;;;3.55;0.90;;;15.30;99.90;;;;;;5082848;28;20260;-89
2022/09/03 11:20:19;;;;;;;3.38;0.80;;;15.30;99.90;;;;;;5072945;28;20202;-90
2022/09/03 11:22:53;;;;;;;2.42;0.75;;;15.40;99.90;;;;;;5077729;28;20658;-89
2022/09/03 11:25:27;;;;;;;4.32;0.80;;;15.40;99.90;;;;;;5075518;28;20206;-89
2022/09/03 11:28:11;;;;;;;3.78;0.80;;;15.40;99.90;;;;;;5070399;28;20275;-90
2022/09/03 11:30:56;;;;;;;7.40;1.30;;;15.40;99.90;;;;;;5060632;28;20706;-90
2022/09/03 11:33:31;;;;;;;2.97;1.00;;;15.40;99.90;;;;;;5044251;28;20195;-92
2022/09/03 11:36:03;;;;;;;4.38;1.10;;;15.40;99.90;;;;;;5065366;28;20291;-89
2022/09/03 11:38:34;;;;;;;3.67;0.90;;;15.40;99.90;;;;;;5065318;28;20229;-87
2022/09/03 11:41:14;;;;;;;3.05;0.85;;;15.40;99.90;;;;;;5074495;28;20200;-89
2022/09/03 11:43:45;;;;;;;4.65;0.90;;;15.40;99.90;;;;;;5074348;28;20595;-90
2022/09/03 11:46:28;;;;;;;1.95;0.63;;;15.40;99.90;;;;;;5074466;28;20196;-89
2022/09/03 11:49:13;;;;;;;6.38;1.25;;;15.40;99.90;;;;;;5053977;28;20221;-91
2022/09/03 11:51:44;;;;;;;3.45;0.70;;;15.50;99.90;;;;;;5074227;28;20214;-89
2022/09/03 11:54:29;;;;;;;4.65;0.93;;;15.50;99.90;;;;;;5073850;28;20208;-90
2022/09/03 11:57:15;;;;;;;4.15;1.02;;;15.50;99.90;;;;;;5036734;28;20231;-90
2022/09/03 11:59:46;;;;;;;3.63;1.13;;;15.50;99.90;;;;;;5053887;28;20210;-90
2022/09/03 12:02:29;;;;;;;4.25;0.80;;;15.50;99.90;;;;;;5054405;28;20204;-90
2022/09/03 12:05:29;;;;;;;3.13;0.93;;;15.50;99.90;;;;;;5069478;28;20687;-91
2022/09/03 12:08:24;;;;;;;2.63;0.88;;;15.50;99.90;;;;;;5069236;28;20254;-91
2022/09/03 12:11:01;;;;;;;5.93;1.20;;;15.40;99.90;;;;;;5056174;28;20197;-91
2022/09/03 12:13:50;;;;;;;2.80;0.85;;;15.50;99.90;;;;;;5055167;28;20206;-91
2022/09/03 12:17:05;;;;;;;2.88;1.08;;;15.50;99.90;;;;;;5071963;28;20192;-91
2022/09/03 12:19:44;;;;;;;4.82;1.30;;;15.60;99.90;;;;;;4978611;28;20657;-91
2022/09/03 12:22:22;;;;;;;6.18;1.20;;;15.60;99.90;;;;;;5052158;28;20689;-91
2022/09/03 12:24:53;;;;;;;8.50;1.80;;;15.60;99.90;;;;;;5058865;28;20196;-90
2022/09/03 12:27:26;;;;;;;3.70;1.00;;;15.60;99.90;;;;;;5073735;28;20202;-90
2022/09/03 12:30:01;;;;;;;5.43;1.00;;;15.50;99.90;;;;;;5071242;28;20219;-91
2022/09/03 12:32:35;;;;;;;7.57;1.13;;;15.50;99.90;;;;;;5072358;28;20608;-90
2022/09/03 12:35:16;;;;;;;2.53;0.80;;;15.50;99.90;;;;;;5071002;28;20191;-91
2022/09/03 12:37:54;;;;;;;4.15;0.98;;;15.50;99.90;;;;;;5014752;28;20204;-91
2022/09/03 12:40:26;;;;;;;4.85;1.05;;;15.50;99.90;;;;;;5014248;28;20235;-90
2022/09/03 12:42:59;;;;;;;4.50;0.90;;;15.40;99.90;;;;;;5013268;28;20286;-89
2022/09/03 12:45:31;;;;;;;5.30;1.10;;;15.40;99.90;;;;;;5025421;28;20617;-91
2022/09/03 12:48:02;;;;;;;4.38;0.98;;;15.50;99.90;;;;;;5029902;28;20225;-89
2022/09/03 12:50:33;;;;;;;3.30;0.75;;;15.50;99.90;;;;;;5031475;28;20221;-90
2022/09/03 12:53:06;;;;;;;3.67;1.00;;;15.50;99.90;;;;;;5032766;28;20197;-89
2022/09/03 12:55:41;;;;;;;4.68;1.05;;;15.50;99.90;;;;;;5033169;28;20201;-89
2022/09/03 12:58:15;;;;;;;3.05;0.80;;;15.50;99.90;;;;;;5032207;28;20213;-90
2022/09/03 13:00:48;;;;;;;3.20;0.60;;;15.50;99.90;;;;;;5033150;28;20200;-88
2022/09/03 13:03:25;;;;;;;3.75;0.80;;;15.50;99.90;;;;;;5031566;28;20223;-91
2022/09/03 13:05:59;;;;;;;3.42;0.80;;;15.50;99.90;;;;;;5030189;28;20201;-90
2022/09/03 13:08:39;;;;;;;4.40;0.75;;;15.50;99.90;;;;;;5033050;28;20220;-89
2022/09/03 13:11:10;;;;;;;1.25;0.47;;;15.50;99.90;;;;;;5023706;28;20224;-88
2022/09/03 13:13:42;;;;;;;2.05;0.65;;;15.50;99.90;;;;;;5031736;28;20670;-91
2022/09/03 13:16:45;;;;;;;1.83;0.70;;;15.50;99.90;;;;;;5030742;28;20238;-90
2022/09/03 13:19:24;;;;;;;4.50;1.50;;;15.50;99.90;;;;;;5004834;28;20575;-90
2022/09/03 13:22:08;;;;;;;6.03;1.10;;;15.60;99.90;;;;;;5032554;28;20205;-89
2022/09/03 13:25:02;;;;;;;5.93;1.17;;;15.50;99.90;;;;;;5029635;28;20207;-91
2022/09/03 13:27:41;;;;;;;4.10;1.00;;;15.40;99.90;;;;;;5027231;28;20556;-90
2022/09/03 13:30:15;;;;;;;7.18;1.20;;;15.40;99.90;;;;;;5029548;28;20221;-86
2022/09/03 13:32:59;;;;;;;3.30;1.08;;;15.30;99.90;;;;;;5021948;28;20562;-85